Time;durP1;ratioP1;P1;durP2;ratioP2;P2;SDS_P1;SDS_P2;PMS_P1;PMS_P2;Temp;Humidity;BMP_temperature;BMP_pressure;BME280_temperature;BME280_humidity;BME280_pressure;Samples;Min_cycle;Max_cycle;Signal;HPM_P1;HPM_P2
2023/04/23 00:01:58;;;;;;;0.50;0.50;;;;;;;5.46;57.00;98986.63;5084938;28;20059;-83
2023/04/23 00:04:25;;;;;;;0.57;0.57;;;;;;;5.41;57.12;98981.91;5077651;28;20518;-83
2023/04/23 00:06:53;;;;;;;0.60;0.60;;;;;;;5.37;57.38;98978.03;5055312;28;20044;-82
2023/04/23 00:09:21;;;;;;;0.60;0.60;;;;;;;5.35;57.42;98982.75;5072899;28;20078;-82
2023/04/23 00:11:49;;;;;;;0.60;0.60;;;;;;;5.38;57.23;98982.34;5073509;28;20461;-82
2023/04/23 00:14:16;;;;;;;0.70;0.70;;;;;;;5.30;57.56;98987.94;5072619;28;20094;-83
2023/04/23 00:16:46;;;;;;;0.68;0.68;;;;;;;5.22;57.89;98989.78;5072482;28;20502;-82
2023/04/23 00:19:15;;;;;;;0.57;0.57;;;;;;;5.12;57.93;98985.91;5072810;28;20044;-82
2023/04/23 00:21:42;;;;;;;0.60;0.60;;;;;;;5.08;58.12;98984.69;5073300;28;20450;-83
2023/04/23 00:24:12;;;;;;;0.60;0.60;;;;;;;5.07;58.13;98989.22;5087171;28;20063;-81
2023/04/23 00:26:42;;;;;;;0.50;0.50;;;;;;;5.02;58.48;98991.69;5081893;28;20052;-83
2023/04/23 00:29:09;;;;;;;0.60;0.60;;;;;;;5.04;58.64;98994.16;5054650;28;20561;-82
2023/04/23 00:31:42;;;;;;;0.52;0.52;;;;;;;5.03;58.47;98993.31;5072783;28;20143;-82
2023/04/23 00:34:09;;;;;;;0.60;0.60;;;;;;;5.02;58.71;98997.06;5072402;28;20529;-82
2023/04/23 00:36:37;;;;;;;0.60;0.60;;;;;;;5.00;58.58;98996.44;5072503;28;20496;-82
2023/04/23 00:39:04;;;;;;;0.60;0.60;;;;;;;4.94;58.99;98997.28;5070604;28;20128;-81
2023/04/23 00:41:32;;;;;;;0.65;0.65;;;;;;;4.93;59.32;98996.44;5072271;28;20125;-82
2023/04/23 00:43:59;;;;;;;0.60;0.60;;;;;;;4.90;59.31;99001.38;5054430;28;20049;-82
2023/04/23 00:46:27;;;;;;;0.65;0.65;;;;;;;4.87;59.52;99007.97;5070299;28;20048;-82
2023/04/23 00:48:54;;;;;;;0.60;0.60;;;;;;;4.82;59.69;99012.31;5072215;28;20514;-83
2023/04/23 00:51:23;;;;;;;0.50;0.50;;;;;;;4.84;59.90;99008.38;5054025;28;20048;-83
2023/04/23 00:53:50;;;;;;;0.60;0.60;;;;;;;4.98;59.67;99004.66;5072255;28;20131;-83
2023/04/23 00:56:21;;;;;;;0.60;0.60;;;;;;;4.91;59.80;99011.03;5072084;28;20140;-80
2023/04/23 00:58:50;;;;;;;0.70;0.70;;;;;;;4.83;59.87;99011.25;5053762;28;20052;-82
2023/04/23 01:01:19;;;;;;;0.60;0.60;;;;;;;4.76;60.37;99011.25;5071231;28;20052;-82
2023/04/23 01:03:48;;;;;;;0.70;0.70;;;;;;;4.75;60.84;99014.97;5054482;28;20044;-82
2023/04/23 01:06:15;;;;;;;0.60;0.60;;;;;;;4.72;60.71;99015.38;5071747;28;20056;-82
2023/04/23 01:08:46;;;;;;;0.60;0.60;;;;;;;4.64;61.11;99010.25;5071352;28;20055;-82
2023/04/23 01:11:16;;;;;;;0.60;0.60;;;;;;;4.66;61.08;99017.03;5053796;28;20053;-82
2023/04/23 01:13:44;;;;;;;0.60;0.60;;;;;;;4.68;60.77;99009.63;5053727;28;20048;-83
2023/04/23 01:16:11;;;;;;;0.70;0.70;;;;;;;4.66;61.00;99019.72;5069897;28;20089;-81
2023/04/23 01:18:39;;;;;;;0.60;0.60;;;;;;;4.66;61.32;99016.19;5070118;28;20565;-84
2023/04/23 01:21:09;;;;;;;0.60;0.60;;;;;;;4.61;61.54;99016.84;5053943;28;20465;-81
2023/04/23 01:23:36;;;;;;;0.63;0.63;;;;;;;4.58;61.52;99017.22;5055136;28;20148;-82
2023/04/23 01:26:03;;;;;;;0.50;0.50;;;;;;;4.55;61.60;99013.09;5070857;28;20078;-82
2023/04/23 01:28:31;;;;;;;0.70;0.70;;;;;;;4.53;61.86;99023.22;5071282;28;20518;-82
2023/04/23 01:30:58;;;;;;;0.60;0.60;;;;;;;4.46;61.95;99011.69;5037197;28;21049;-81
2023/04/23 01:33:30;;;;;;;0.70;0.70;;;;;;;4.41;62.28;99021.34;5053626;28;20064;-81
2023/04/23 01:35:57;;;;;;;0.70;0.70;;;;;;;4.34;62.32;99018.66;5071200;28;20080;-81
2023/04/23 01:38:24;;;;;;;0.60;0.60;;;;;;;4.29;62.98;99015.78;5053093;28;20052;-81
2023/04/23 01:40:52;;;;;;;0.70;0.70;;;;;;;4.37;63.17;99017.44;5036702;28;20072;-81
2023/04/23 01:43:21;;;;;;;0.70;0.70;;;;;;;4.37;63.06;99022.78;5070957;28;20044;-81
2023/04/23 01:45:48;;;;;;;0.70;0.70;;;;;;;4.39;63.04;99023.41;5071320;28;20143;-83
2023/04/23 01:48:16;;;;;;;0.70;0.70;;;;;;;4.33;63.10;99020.50;5037478;28;20045;-82
2023/04/23 01:50:43;;;;;;;0.60;0.60;;;;;;;4.29;63.31;99029.13;5070922;28;20094;-82
2023/04/23 01:53:10;;;;;;;0.60;0.60;;;;;;;4.28;63.40;99025.66;5070426;28;20510;-81
2023/04/23 01:55:38;;;;;;;0.50;0.50;;;;;;;4.23;63.69;99028.09;5053380;28;20080;-81
2023/04/23 01:58:06;;;;;;;0.70;0.70;;;;;;;4.19;63.89;99031.38;5037143;28;20064;-81
2023/04/23 02:00:33;;;;;;;0.70;0.70;;;;;;;4.20;64.02;99030.34;5036659;28;20048;-81
2023/04/23 02:03:00;;;;;;;0.68;0.68;;;;;;;4.20;64.26;99033.00;5070845;28;20510;-82
2023/04/23 02:05:31;;;;;;;0.70;0.70;;;;;;;4.19;64.23;99037.53;5070537;28;20048;-82
2023/04/23 02:07:58;;;;;;;0.70;0.70;;;;;;;4.22;63.94;99037.13;5070761;28;20139;-83
2023/04/23 02:10:25;;;;;;;0.70;0.70;;;;;;;4.23;63.74;99032.59;5052554;28;20078;-82
2023/04/23 02:12:52;;;;;;;0.70;0.70;;;;;;;4.19;64.07;99028.72;5069912;28;20498;-81
2023/04/23 02:15:20;;;;;;;0.70;0.70;;;;;;;4.16;64.24;99037.13;5070551;28;20048;-82
2023/04/23 02:17:50;;;;;;;0.77;0.77;;;;;;;4.15;64.17;99041.63;5008557;28;20448;-82
2023/04/23 02:20:18;;;;;;;0.68;0.68;;;;;;;4.20;64.06;99041.03;5008024;28;20561;-83
2023/04/23 02:22:46;;;;;;;0.70;0.70;;;;;;;4.24;63.81;99050.28;4992774;28;20061;-83
2023/04/23 02:25:16;;;;;;;0.70;0.70;;;;;;;4.29;63.64;99037.97;5009750;28;20460;-82
2023/04/23 02:27:44;;;;;;;0.65;0.65;;;;;;;4.40;62.92;99049.06;5009999;28;20056;-81
2023/04/23 02:30:11;;;;;;;0.70;0.70;;;;;;;4.48;62.35;99047.06;5009157;28;20149;-82
2023/04/23 02:32:39;;;;;;;0.60;0.60;;;;;;;4.56;61.87;99051.38;5009242;28;20108;-82
2023/04/23 02:35:08;;;;;;;0.60;0.60;;;;;;;4.62;61.92;99053.22;5019527;28;20070;-81
2023/04/23 02:37:36;;;;;;;0.77;0.77;;;;;;;4.67;62.23;99050.75;5019370;28;20504;-82
2023/04/23 02:40:09;;;;;;;0.60;0.60;;;;;;;4.67;61.87;99053.44;4993652;28;20049;-82
2023/04/23 02:42:36;;;;;;;0.60;0.60;;;;;;;4.68;61.88;99049.72;5009563;28;20075;-82
2023/04/23 02:45:04;;;;;;;0.63;0.63;;;;;;;4.76;61.55;99054.03;5008679;28;20053;-83
2023/04/23 02:47:34;;;;;;;0.70;0.70;;;;;;;4.74;61.72;99048.91;5008484;28;20108;-83
2023/04/23 02:50:05;;;;;;;0.70;0.70;;;;;;;4.76;62.01;99056.72;5070235;28;20075;-82
2023/04/23 02:52:32;;;;;;;0.70;0.70;;;;;;;4.80;62.41;99065.97;5070465;28;20052;-82
2023/04/23 02:55:03;;;;;;;0.63;0.63;;;;;;;4.97;61.87;99061.03;5052535;28;20048;-84
2023/04/23 02:57:33;;;;;;;0.70;0.70;;;;;;;5.22;61.00;99069.25;5052496;28;20044;-83
2023/04/23 03:00:00;;;;;;;0.60;0.60;;;;;;;5.40;60.48;99065.91;5052728;28;20049;-83
2023/04/23 03:02:35;;;;;;;0.80;0.80;;;;;;;5.50;60.30;99065.50;5053873;28;20045;-82
2023/04/23 03:05:04;;;;;;;0.70;0.70;;;;;;;5.57;60.59;99071.63;5053965;28;20041;-83
2023/04/23 03:07:31;;;;;;;0.70;0.70;;;;;;;5.63;60.58;99070.81;5070246;28;20465;-82
2023/04/23 03:09:58;;;;;;;0.70;0.70;;;;;;;5.72;60.79;99077.59;5070094;28;20049;-83
2023/04/23 03:12:25;;;;;;;0.63;0.63;;;;;;;5.84;60.96;99077.72;5035719;28;20048;-83
2023/04/23 03:14:52;;;;;;;0.70;0.70;;;;;;;6.01;60.63;99078.09;5070432;28;20044;-83
2023/04/23 03:17:24;;;;;;;0.70;0.70;;;;;;;6.16;60.50;99075.16;5068689;28;20497;-83
2023/04/23 03:19:52;;;;;;;0.60;0.60;;;;;;;6.30;59.93;99082.06;5052257;28;20123;-82
2023/04/23 03:22:20;;;;;;;0.70;0.70;;;;;;;6.53;58.92;99086.06;5068826;28;20102;-82
2023/04/23 03:24:50;;;;;;;0.70;0.70;;;;;;;6.69;57.78;99081.00;5072411;28;20048;-82
2023/04/23 03:27:19;;;;;;;0.70;0.70;;;;;;;6.88;57.00;99087.25;5035748;28;20053;-82
2023/04/23 03:29:46;;;;;;;0.70;0.70;;;;;;;7.07;55.64;99090.81;5052370;28;20084;-81
2023/04/23 03:32:13;;;;;;;0.60;0.60;;;;;;;7.09;54.76;99087.91;5035671;28;20048;-82
2023/04/23 03:34:40;;;;;;;0.70;0.70;;;;;;;7.18;54.45;99099.19;5035661;28;20077;-81
2023/04/23 03:37:08;;;;;;;0.60;0.60;;;;;;;7.19;55.04;99100.84;5053511;28;20052;-81
2023/04/23 03:39:37;;;;;;;0.60;0.60;;;;;;;7.14;55.49;99109.53;5035898;28;20076;-84
2023/04/23 03:42:05;;;;;;;0.60;0.60;;;;;;;7.00;56.38;99108.03;5049821;28;20051;-83
2023/04/23 03:44:33;;;;;;;0.68;0.68;;;;;;;7.01;56.61;99098.91;5073442;28;20517;-82
2023/04/23 03:47:00;;;;;;;0.60;0.60;;;;;;;7.15;56.50;99100.47;5068699;28;20047;-84
2023/04/23 03:49:29;;;;;;;0.60;0.60;;;;;;;7.11;56.52;99100.06;5052097;28;20061;-82
2023/04/23 03:51:56;;;;;;;0.60;0.60;;;;;;;7.09;56.75;99112.06;5052189;28;20053;-83
2023/04/23 03:54:27;;;;;;;0.60;0.60;;;;;;;7.01;57.37;99104.28;5051891;28;20504;-82
2023/04/23 03:57:08;;;;;;;0.60;0.60;;;;;;;7.03;57.04;99116.44;5052109;28;20053;-81
2023/04/23 03:59:51;;;;;;;0.60;0.60;;;;;;;7.12;57.13;99106.28;5054953;28;20055;-82
2023/04/23 04:02:19;;;;;;;0.60;0.60;;;;;;;7.38;56.36;99116.75;5055134;28;20423;-83
2023/04/23 04:04:53;;;;;;;0.70;0.70;;;;;;;7.66;55.32;99123.50;5073360;28;20045;-83
2023/04/23 04:07:23;;;;;;;0.70;0.70;;;;;;;7.91;54.02;99120.75;5073086;28;20059;-83
2023/04/23 04:09:50;;;;;;;0.60;0.60;;;;;;;7.95;53.72;99121.13;5063615;28;20049;-82
2023/04/23 04:12:17;;;;;;;0.60;0.60;;;;;;;8.07;53.48;99119.34;5034807;28;20524;-83
2023/04/23 04:14:46;;;;;;;0.70;0.70;;;;;;;8.43;53.36;99118.50;5034728;28;20531;-82
2023/04/23 04:17:14;;;;;;;0.60;0.60;;;;;;;8.68;52.31;99131.81;5052339;28;20057;-83
2023/04/23 04:19:42;;;;;;;0.70;0.70;;;;;;;8.95;51.78;99120.63;5052716;28;20447;-83
2023/04/23 04:22:09;;;;;;;0.70;0.70;;;;;;;9.06;51.69;99130.63;5034667;28;20539;-82
2023/04/23 04:24:36;;;;;;;0.70;0.70;;;;;;;9.36;51.13;99137.78;5034609;28;20057;-82
2023/04/23 04:27:04;;;;;;;0.60;0.60;;;;;;;9.63;50.45;99129.25;5051276;28;20072;-82
2023/04/23 04:29:32;;;;;;;0.60;0.60;;;;;;;9.76;50.44;99131.69;5052185;28;20051;-81
2023/04/23 04:32:04;;;;;;;0.60;0.60;;;;;;;9.80;50.65;99137.41;5052518;28;20079;-81
2023/04/23 04:34:35;;;;;;;0.60;0.60;;;;;;;9.86;49.92;99150.78;5051359;28;20087;-82
2023/04/23 04:37:02;;;;;;;0.60;0.60;;;;;;;9.97;49.22;99136.44;5055572;28;20056;-82
2023/04/23 04:39:29;;;;;;;0.60;0.60;;;;;;;10.09;48.54;99141.84;5072684;28;20143;-81
2023/04/23 04:41:58;;;;;;;0.60;0.60;;;;;;;10.28;48.39;99145.22;5056104;28;20056;-82
2023/04/23 04:44:25;;;;;;;0.60;0.60;;;;;;;10.40;48.28;99146.00;5074553;28;20152;-84
2023/04/23 04:46:53;;;;;;;0.60;0.60;;;;;;;10.48;47.58;99144.81;5075211;28;20093;-83
2023/04/23 04:49:20;;;;;;;0.60;0.60;;;;;;;10.62;46.98;99148.03;5077879;28;20479;-81
2023/04/23 04:51:47;;;;;;;0.60;0.60;;;;;;;10.77;46.31;99148.31;5072234;28;20041;-82
2023/04/23 04:54:18;;;;;;;0.60;0.60;;;;;;;10.85;45.35;99147.91;5073076;28;20477;-81
2023/04/23 04:57:07;;;;;;;0.50;0.50;;;;;;;11.07;44.70;99150.75;5056145;28;20063;-81
2023/04/23 04:59:35;;;;;;;0.50;0.50;;;;;;;11.27;43.77;99152.97;5071729;28;20617;-86
2023/04/23 05:02:07;;;;;;;0.60;0.60;;;;;;;11.39;43.30;99157.47;5071868;28;20045;-82
2023/04/23 05:04:38;;;;;;;0.60;0.60;;;;;;;11.41;42.45;99156.16;5054032;28;20045;-85
2023/04/23 05:07:06;;;;;;;0.60;0.60;;;;;;;11.59;42.28;99152.38;5068489;28;20048;-84
2023/04/23 05:09:33;;;;;;;0.50;0.50;;;;;;;11.78;42.50;99152.13;4701921;28;10000224;-86
2023/04/23 05:12:00;;;;;;;0.60;0.60;;;;;;;11.93;42.78;99165.88;5068067;28;20090;-87
2023/04/23 05:14:30;;;;;;;0.60;0.60;;;;;;;12.03;42.83;99166.03;5068407;28;20052;-84
2023/04/23 05:16:59;;;;;;;0.60;0.60;;;;;;;12.08;42.56;99157.97;5050369;28;20052;-87
2023/04/23 05:19:34;;;;;;;0.50;0.50;;;;;;;12.17;42.64;99165.66;5035477;28;20426;-84
2023/04/23 05:22:03;;;;;;;0.50;0.50;;;;;;;12.24;42.74;99167.09;5069888;28;20048;-83
2023/04/23 05:24:32;;;;;;;0.60;0.60;;;;;;;12.21;42.35;99172.19;5034429;28;20054;-86
2023/04/23 05:27:00;;;;;;;0.50;0.50;;;;;;;12.19;42.70;99161.63;5068860;28;20044;-86
2023/04/23 05:29:30;;;;;;;0.50;0.50;;;;;;;12.31;42.07;99173.13;5068003;28;20233;-85
2023/04/23 05:32:02;;;;;;;0.50;0.50;;;;;;;12.39;42.28;99162.94;5035640;28;20052;-86
2023/04/23 05:34:32;;;;;;;0.50;0.50;;;;;;;12.37;41.92;99171.31;5031854;28;20139;-91
2023/04/23 05:37:10;;;;;;;0.47;0.47;;;;;;;12.48;41.64;99172.25;5050201;28;20118;-87
2023/04/23 05:39:37;;;;;;;0.50;0.50;;;;;;;12.63;41.28;99175.13;5030995;28;20049;-86
2023/04/23 05:42:06;;;;;;;0.50;0.50;;;;;;;12.62;41.26;99168.09;5053979;28;20545;-87
2023/04/23 05:44:33;;;;;;;0.50;0.50;;;;;;;12.79;40.86;99178.84;5050435;28;20052;-85
2023/04/23 05:47:01;;;;;;;0.50;0.50;;;;;;;12.88;40.56;99179.19;5068503;28;20075;-85
2023/04/23 05:49:28;;;;;;;0.50;0.50;;;;;;;12.87;40.47;99170.25;5051053;28;20048;-87
2023/04/23 05:51:58;;;;;;;0.50;0.50;;;;;;;12.99;40.40;99183.66;5069455;28;20489;-88
2023/04/23 05:54:25;;;;;;;0.60;0.60;;;;;;;13.07;40.39;99180.47;5073630;28;20465;-85
2023/04/23 05:56:55;;;;;;;0.50;0.50;;;;;;;13.22;39.90;99182.50;5071657;28;20135;-86
2023/04/23 05:59:22;;;;;;;0.50;0.50;;;;;;;13.26;40.00;99189.03;5023981;28;20044;-88
2023/04/23 06:01:50;;;;;;;0.50;0.50;;;;;;;13.28;39.90;99189.63;5052912;28;20063;-86
2023/04/23 06:04:17;;;;;;;0.50;0.50;;;;;;;13.15;39.84;99181.91;5078359;28;20040;-86
2023/04/23 06:06:47;;;;;;;0.50;0.50;;;;;;;13.19;39.78;99191.13;5053271;28;20047;-87
2023/04/23 06:12:02;;;;;;;0.50;0.50;;;;;;;13.10;38.89;99198.91;5069667;28;20083;-86
2023/04/23 06:14:29;;;;;;;0.50;0.50;;;;;;;13.06;39.36;99195.06;5068680;28;20143;-85
2023/04/23 06:17:03;;;;;;;0.50;0.50;;;;;;;13.10;38.98;99203.53;5049649;28;20155;-87
2023/04/23 06:19:30;;;;;;;0.50;0.50;;;;;;;13.07;39.00;99204.84;5064743;28;20061;-87
2023/04/23 06:21:57;;;;;;;0.50;0.50;;;;;;;13.15;38.91;99198.16;5060285;28;20080;-86
2023/04/23 06:24:24;;;;;;;0.50;0.50;;;;;;;13.27;38.87;99201.56;5065073;28;20052;-85
2023/04/23 06:26:52;;;;;;;0.50;0.50;;;;;;;13.41;38.38;99202.75;5053095;28;20106;-83
2023/04/23 06:29:20;;;;;;;0.50;0.50;;;;;;;13.63;38.22;99204.56;5028075;28;20427;-84
2023/04/23 06:32:01;;;;;;;0.50;0.50;;;;;;;13.76;38.14;99206.00;5063828;28;20053;-83
2023/04/23 06:34:28;;;;;;;0.50;0.50;;;;;;;13.90;37.76;99209.91;5045194;28;20045;-82
2023/04/23 06:36:59;;;;;;;0.50;0.50;;;;;;;13.93;38.03;99203.16;5048532;28;20045;-79
2023/04/23 06:39:28;;;;;;;0.60;0.60;;;;;;;14.16;37.02;99204.66;5063830;28;20586;-84
2023/04/23 06:41:56;;;;;;;0.50;0.50;;;;;;;14.70;36.67;99199.72;5066118;28;20044;-82
2023/04/23 06:44:42;;;;;;;0.57;0.57;;;;;;;15.40;35.66;99210.22;5049168;28;20749;-84
2023/04/23 06:47:10;;;;;;;0.57;0.57;;;;;;;15.86;34.80;99210.22;5049491;28;20110;-84
2023/04/23 06:49:39;;;;;;;0.50;0.50;;;;;;;16.13;34.45;99214.50;5034132;28;20515;-84
2023/04/23 06:52:19;;;;;;;0.50;0.50;;;;;;;16.34;34.02;99213.38;5070407;28;20052;-84
2023/04/23 06:54:49;;;;;;;0.50;0.50;;;;;;;16.02;34.05;99211.00;5050543;28;20083;-85
2023/04/23 06:57:20;;;;;;;0.50;0.50;;;;;;;15.98;34.21;99208.03;5070238;28;20048;-85
2023/04/23 06:59:47;;;;;;;0.50;0.50;;;;;;;15.97;33.96;99209.09;5057171;28;20109;-82
2023/04/23 07:02:18;;;;;;;0.55;0.55;;;;;;;16.30;33.97;99208.75;5057323;28;20449;-87
2023/04/23 07:04:45;;;;;;;0.50;0.50;;;;;;;16.94;33.26;99212.59;5074135;28;20047;-83
2023/04/23 07:07:12;;;;;;;0.50;0.50;;;;;;;16.98;31.94;99221.84;5043620;28;20051;-82
2023/04/23 07:09:40;;;;;;;0.50;0.50;;;;;;;16.83;31.72;99214.56;4724564;28;10000475;-82
2023/04/23 07:12:07;;;;;;;0.55;0.55;;;;;;;17.04;31.76;99220.72;5072571;28;20135;-84
2023/04/23 07:14:38;;;;;;;0.50;0.50;;;;;;;16.94;31.70;99218.88;5048821;28;20045;-85
2023/04/23 07:17:21;;;;;;;0.55;0.55;;;;;;;17.26;31.49;99217.59;4967387;28;20595;-85
2023/04/23 07:19:51;;;;;;;0.50;0.50;;;;;;;16.98;30.79;99198.13;4937276;28;20058;-83
2023/04/23 07:22:18;;;;;;;0.40;0.40;;;;;;;16.94;31.15;99215.31;4968579;28;20058;-83
2023/04/23 07:24:45;;;;;;;0.50;0.50;;;;;;;16.73;31.61;99215.41;4952790;28;20051;-84
2023/04/23 07:27:12;;;;;;;0.40;0.40;;;;;;;16.73;31.70;99215.41;4968253;28;20047;-84
2023/04/23 07:29:39;;;;;;;0.50;0.50;;;;;;;16.65;31.91;99211.34;4953249;28;20125;-84
2023/04/23 07:32:09;;;;;;;0.50;0.50;;;;;;;16.83;31.42;99223.56;4953480;28;20050;-85
2023/04/23 07:34:37;;;;;;;0.50;0.50;;;;;;;17.23;31.12;99218.97;4968782;28;20093;-84
2023/04/23 07:37:05;;;;;;;0.50;0.50;;;;;;;17.61;30.73;99216.50;4968939;28;20055;-84
2023/04/23 07:39:33;;;;;;;0.60;0.60;;;;;;;17.84;30.42;99217.69;4997736;28;20053;-84
2023/04/23 07:42:04;;;;;;;0.50;0.50;;;;;;;18.21;29.45;99218.16;5050610;28;20075;-82
2023/04/23 07:44:32;;;;;;;0.50;0.50;;;;;;;18.02;29.92;99218.06;5050753;28;20073;-86
2023/04/23 07:46:59;;;;;;;0.50;0.50;;;;;;;17.84;29.75;99211.44;5051490;28;20053;-87
2023/04/23 07:49:27;;;;;;;0.40;0.40;;;;;;;17.68;29.61;99225.19;5050556;28;20115;-85
2023/04/23 07:51:57;;;;;;;0.50;0.50;;;;;;;17.39;29.89;99221.59;5051012;28;20590;-87
2023/04/23 07:54:24;;;;;;;0.50;0.50;;;;;;;17.65;30.11;99216.75;5049889;28;20049;-88
2023/04/23 07:56:53;;;;;;;0.50;0.50;;;;;;;17.89;29.75;99216.84;5049533;28;20083;-88
2023/04/23 07:59:22;;;;;;;0.52;0.52;;;;;;;18.32;28.98;99211.47;5050032;28;20045;-86
2023/04/23 08:01:50;;;;;;;0.60;0.60;;;;;;;18.80;27.63;99206.81;5051113;28;20412;-87
2023/04/23 08:04:20;;;;;;;0.50;0.50;;;;;;;18.94;26.84;99212.38;5049154;28;20048;-87
2023/04/23 08:06:48;;;;;;;0.50;0.50;;;;;;;18.61;26.57;99205.94;5049683;28;20053;-83
2023/04/23 08:09:15;;;;;;;0.60;0.60;;;;;;;18.63;26.42;99212.75;5050246;28;20049;-85
2023/04/23 08:11:43;;;;;;;0.50;0.50;;;;;;;18.61;26.86;99206.75;5056714;28;20877;-86
2023/04/23 08:14:24;;;;;;;0.40;0.40;;;;;;;17.98;27.34;99196.81;5049780;28;20466;-87
2023/04/23 08:16:54;;;;;;;0.50;0.50;;;;;;;18.37;27.18;99208.69;5052885;28;20064;-90
2023/04/23 08:19:35;;;;;;;0.30;0.30;;;;;;;18.00;27.18;99218.34;5053637;28;20393;-87
2023/04/23 08:22:16;;;;;;;0.40;0.40;;;;;;;17.80;27.03;99213.94;5052652;28;20115;-85
2023/04/23 08:24:45;;;;;;;0.40;0.40;;;;;;;17.65;26.97;99203.13;5052102;28;20153;-86
2023/04/23 08:27:12;;;;;;;0.40;0.40;;;;;;;17.45;27.30;99209.56;5051971;28;20500;-90
2023/04/23 08:29:41;;;;;;;0.60;0.60;;;;;;;17.87;26.49;99210.84;5053549;28;20110;-89
2023/04/23 08:32:31;;;;;;;0.60;0.60;;;;;;;18.69;25.14;99216.22;5053840;28;20055;-90
2023/04/23 08:34:59;;;;;;;0.70;0.70;;;;;;;18.91;24.92;99210.22;5053309;28;20135;-92
2023/04/23 08:37:27;;;;;;;0.40;0.40;;;;;;;19.58;24.22;99214.72;5054479;28;20516;-86
2023/04/23 08:39:57;;;;;;;0.30;0.30;;;;;;;19.00;25.00;99216.66;5055626;28;20068;-90
2023/04/23 08:42:58;;;;;;;0.40;0.40;;;;;;;17.89;25.11;99225.84;5044083;28;20073;-90
2023/04/23 08:45:25;;;;;;;0.40;0.40;;;;;;;17.40;25.68;99212.31;5034918;28;20049;-91
2023/04/23 08:47:58;;;;;;;0.40;0.40;;;;;;;17.44;25.59;99211.44;5034975;28;20045;-91
2023/04/23 08:50:36;;;;;;;0.70;0.70;;;;;;;18.15;24.96;99206.47;5032321;28;20077;-89
2023/04/23 08:53:07;;;;;;;0.70;0.70;;;;;;;19.97;23.28;99206.09;5004262;28;20053;-92
2023/04/23 08:55:35;;;;;;;0.60;0.60;;;;;;;21.08;22.43;99208.84;5033282;28;20535;-88
2023/04/23 08:58:05;;;;;;;0.60;0.60;;;;;;;21.41;21.77;99199.28;5017521;28;20141;-90
2023/04/23 09:00:53;;;;;;;0.60;0.60;;;;;;;22.21;21.50;99195.91;5034310;28;20068;-90
2023/04/23 09:03:21;;;;;;;0.60;0.60;;;;;;;23.12;20.83;99186.13;5034594;28;20064;-91
2023/04/23 09:05:52;;;;;;;0.60;0.60;;;;;;;23.23;20.30;99195.66;5032826;28;20053;-89
2023/04/23 09:11:07;;;;;;;0.50;0.50;;;;;;;23.92;19.96;99188.47;5035474;28;20053;-87
2023/04/23 09:13:35;;;;;;;0.60;0.60;;;;;;;24.63;19.06;99179.59;5033067;28;20219;-88
2023/04/23 09:16:04;;;;;;;0.60;0.60;;;;;;;24.64;18.87;99173.75;5033699;28;20450;-88
2023/04/23 09:18:31;;;;;;;0.50;0.50;;;;;;;24.95;19.12;99177.28;5062291;28;20093;-85
2023/04/23 09:21:00;;;;;;;0.30;0.30;;;;;;;22.62;20.46;99184.56;5076653;28;20055;-89
2023/04/23 09:23:27;;;;;;;0.30;0.30;;;;;;;20.88;22.23;99182.66;5054543;28;20055;-88
2023/04/23 09:25:55;;;;;;;0.30;0.30;;;;;;;20.82;22.75;99175.69;5040037;28;20044;-86
2023/04/23 09:28:41;;;;;;;0.40;0.40;;;;;;;20.60;22.90;99179.16;5054860;28;20083;-87
2023/04/23 09:31:10;;;;;;;0.60;0.60;;;;;;;22.34;21.13;99184.00;5040256;28;20049;-89
2023/04/23 09:33:37;;;;;;;0.60;0.60;;;;;;;22.86;20.33;99175.84;5042647;28;20044;-89
2023/04/23 09:36:14;;;;;;;0.60;0.60;;;;;;;22.96;20.23;99160.97;5039231;28;20144;-88
2023/04/23 09:38:41;;;;;;;0.60;0.60;;;;;;;23.35;20.07;99178.50;5072501;28;20059;-88
2023/04/23 09:41:24;;;;;;;0.55;0.55;;;;;;;22.42;20.17;99171.41;5072644;28;20048;-88
2023/04/23 09:43:58;;;;;;;0.50;0.50;;;;;;;22.87;20.12;99176.69;5036230;28;20053;-91
2023/04/23 09:46:42;;;;;;;;;;;;;;;23.46;19.70;99167.97;5049701;28;20052;-92
2023/04/23 09:49:11;;;;;;;0.60;0.60;;;;;;;22.71;19.99;99177.16;5067210;28;20004;-93
2023/04/23 09:51:41;;;;;;;0.60;0.60;;;;;;;23.02;20.07;99156.16;5037855;28;20049;-90
2023/04/23 09:54:15;;;;;;;0.60;0.60;;;;;;;23.60;19.88;99160.34;5035185;28;20102;-88
2023/04/23 09:56:42;;;;;;;0.60;0.60;;;;;;;24.63;18.93;99163.03;4996086;28;20421;-89
2023/04/23 09:59:24;;;;;;;0.60;0.60;;;;;;;24.51;18.48;99165.69;5002798;28;20057;-85
2023/04/23 10:02:13;;;;;;;0.47;0.47;;;;;;;24.59;18.44;99167.63;5015242;28;20060;-86
2023/04/23 10:04:40;;;;;;;0.30;0.30;;;;;;;23.55;19.42;99179.78;4999057;28;20116;-85
2023/04/23 10:07:12;;;;;;;0.30;0.30;;;;;;;21.50;20.99;99158.19;5001161;28;20115;-89
2023/04/23 10:10:06;;;;;;;0.70;0.70;;;;;;;22.86;20.09;99158.53;5020663;28;20048;-87
2023/04/23 10:12:36;;;;;;;0.60;0.60;;;;;;;24.45;19.14;99154.06;5022391;28;20053;-88
2023/04/23 10:15:20;;;;;;;;;;;;;;;24.94;19.02;99153.56;5016287;28;20052;-90
2023/04/23 10:17:49;;;;;;;0.60;0.60;;;;;;;25.88;18.67;99150.31;4996924;28;19925;-88
2023/04/23 10:20:20;;;;;;;0.55;0.55;;;;;;;26.15;17.66;99154.34;5015586;28;20140;-88
2023/04/23 10:22:51;;;;;;;0.50;0.50;;;;;;;26.23;17.56;99156.22;4998254;28;20073;-90
2023/04/23 10:25:28;;;;;;;0.60;0.60;;;;;;;26.01;17.70;99143.63;5028984;28;20072;-88
2023/04/23 10:27:57;;;;;;;0.30;0.30;;;;;;;25.90;17.38;99147.97;5040581;28;20055;-90
2023/04/23 10:30:24;;;;;;;0.50;0.50;;;;;;;24.82;17.83;99157.06;5054419;28;20098;-89
2023/04/23 10:32:53;;;;;;;0.40;0.40;;;;;;;24.60;18.57;99183.03;5071486;28;20044;-85
2023/04/23 10:35:22;;;;;;;0.60;0.60;;;;;;;22.85;19.52;99154.19;5072344;28;20048;-90
2023/04/23 10:37:50;;;;;;;0.30;0.30;;;;;;;22.46;20.09;99161.41;5069873;28;20063;-87
2023/04/23 10:40:28;;;;;;;0.30;0.30;;;;;;;20.53;21.48;99143.91;5101847;22;20111;31
2023/04/23 10:42:56;;;;;;;0.80;0.80;;;;;;;20.74;21.81;99147.06;4942232;29;20083;-89
2023/04/23 10:48:12;;;;;;;0.60;0.60;;;;;;;25.39;18.07;99139.88;4952417;29;20056;-92
2023/04/23 10:50:43;;;;;;;0.55;0.55;;;;;;;26.01;17.56;99138.09;4948497;29;20093;-91
2023/04/23 10:53:38;;;;;;;0.60;0.60;;;;;;;25.86;17.90;99142.34;4930427;29;20054;-88
2023/04/23 10:56:06;;;;;;;0.50;0.50;;;;;;;26.29;17.79;99145.72;4943190;29;20055;-88
2023/04/23 10:58:50;;;;;;;0.50;0.50;;;;;;;26.45;16.90;99143.84;4938026;29;20119;-90
2023/04/23 11:01:19;;;;;;;0.50;0.50;;;;;;;26.42;17.10;99139.03;4959029;29;20078;-90
2023/04/23 11:03:47;;;;;;;0.50;0.50;;;;;;;27.18;16.62;99142.94;4950660;29;20047;-93
2023/04/23 11:06:19;;;;;;;0.50;0.50;;;;;;;27.32;16.09;99136.19;4929582;29;20051;-90
2023/04/23 11:09:08;;;;;;;0.50;0.50;;;;;;;27.69;16.16;99134.03;4950677;29;20134;-89
2023/04/23 11:11:40;;;;;;;0.50;0.50;;;;;;;27.09;15.93;99133.13;4952069;29;20082;-88
2023/04/23 11:14:14;;;;;;;0.50;0.50;;;;;;;26.17;16.65;99125.19;4964955;28;20059;-90
2023/04/23 11:17:05;;;;;;;0.50;0.50;;;;;;;25.85;16.86;99132.44;4977252;28;20047;-89
2023/04/23 11:19:36;;;;;;;0.50;0.50;;;;;;;26.20;16.71;99120.94;4959685;28;20051;-92
2023/04/23 11:22:19;;;;;;;0.50;0.50;;;;;;;27.15;16.10;99126.22;4964818;28;20046;-89
2023/04/23 11:24:54;;;;;;;0.50;0.50;;;;;;;26.32;16.36;99136.72;4956943;28;20070;-92
2023/04/23 11:27:21;;;;;;;0.52;0.52;;;;;;;25.54;17.01;99132.91;4970331;28;20082;-87
2023/04/23 11:29:56;;;;;;;0.50;0.50;;;;;;;26.11;16.81;99121.06;4982470;28;20058;-88
2023/04/23 11:32:47;;;;;;;0.50;0.50;;;;;;;26.58;16.61;99114.25;4991820;28;20035;-88
2023/04/23 11:35:18;;;;;;;0.50;0.50;;;;;;;27.02;16.10;99136.53;4972376;28;20054;-90
2023/04/23 11:37:50;;;;;;;0.50;0.50;;;;;;;26.55;16.18;99129.59;4940557;28;20500;-90
2023/04/23 11:40:36;;;;;;;0.50;0.50;;;;;;;26.33;16.66;99139.16;4942809;28;20074;-90
2023/04/23 11:43:08;;;;;;;0.50;0.50;;;;;;;26.94;16.33;99118.06;4986382;28;20138;-92
2023/04/23 11:45:36;;;;;;;0.50;0.50;;;;;;;27.94;15.36;99115.31;4973774;28;20090;-93
2023/04/23 11:48:10;;;;;;;0.40;0.40;;;;;;;28.50;15.12;99114.28;4975144;28;20062;-92
2023/04/23 11:50:40;;;;;;;0.40;0.40;;;;;;;29.27;14.65;99093.28;4975510;28;20074;-91
2023/04/23 11:53:10;;;;;;;0.40;0.40;;;;;;;29.98;14.26;99100.19;4942182;28;20047;-90
2023/04/23 11:55:42;;;;;;;0.40;0.40;;;;;;;29.93;14.34;99103.28;4942665;28;20153;-91
2023/04/23 11:58:10;;;;;;;0.40;0.40;;;;;;;29.58;14.38;99109.00;4928277;28;20089;-90
2023/04/23 12:00:37;;;;;;;0.40;0.40;;;;;;;29.39;14.31;99098.69;4974397;28;20441;-91